sensor_id;sensor_type;location;lat;lon;timestamp;P1;durP1;ratioP1;P2;durP2;ratioP2
41426;SDS011;27171;51.812;19.514;2023-12-07T00:01:45;64.18;;;32.22;;
41426;SDS011;27171;51.812;19.514;2023-12-07T00:04:47;63.28;;;33.28;;
41426;SDS011;27171;51.812;19.514;2023-12-07T00:07:48;67.35;;;32.67;;
41426;SDS011;27171;51.812;19.514;2023-12-07T00:10:49;64.35;;;32.75;;
41426;SDS011;27171;51.812;19.514;2023-12-07T00:13:50;65.85;;;33.55;;
41426;SDS011;27171;51.812;19.514;2023-12-07T00:16:51;65.63;;;34.35;;
41426;SDS011;27171;51.812;19.514;2023-12-07T00:19:53;66.97;;;32.80;;
41426;SDS011;27171;51.812;19.514;2023-12-07T00:22:54;62.50;;;33.90;;
41426;SDS011;27171;51.812;19.514;2023-12-07T00:25:55;57.97;;;29.70;;
41426;SDS011;27171;51.812;19.514;2023-12-07T00:28:56;56.85;;;30.00;;
41426;SDS011;27171;51.812;19.514;2023-12-07T00:31:57;55.95;;;30.08;;
41426;SDS011;27171;51.812;19.514;2023-12-07T00:34:58;62.63;;;32.60;;
41426;SDS011;27171;51.812;19.514;2023-12-07T00:37:59;60.47;;;31.25;;
41426;SDS011;27171;51.812;19.514;2023-12-07T00:41:01;61.08;;;32.65;;
41426;SDS011;27171;51.812;19.514;2023-12-07T00:44:02;61.85;;;30.90;;
41426;SDS011;27171;51.812;19.514;2023-12-07T00:47:03;61.13;;;32.97;;
41426;SDS011;27171;51.812;19.514;2023-12-07T00:50:04;61.03;;;32.72;;
41426;SDS011;27171;51.812;19.514;2023-12-07T00:53:06;58.25;;;31.63;;
41426;SDS011;27171;51.812;19.514;2023-12-07T00:56:07;58.50;;;32.03;;
41426;SDS011;27171;51.812;19.514;2023-12-07T00:59:09;62.03;;;31.92;;
41426;SDS011;27171;51.812;19.514;2023-12-07T01:02:10;61.70;;;33.28;;
41426;SDS011;27171;51.812;19.514;2023-12-07T01:05:11;63.47;;;33.22;;
41426;SDS011;27171;51.812;19.514;2023-12-07T01:08:12;60.83;;;31.95;;
41426;SDS011;27171;51.812;19.514;2023-12-07T01:11:13;61.08;;;30.60;;
41426;SDS011;27171;51.812;19.514;2023-12-07T01:14:15;61.35;;;31.42;;
41426;SDS011;27171;51.812;19.514;2023-12-07T01:17:16;59.83;;;31.02;;
41426;SDS011;27171;51.812;19.514;2023-12-07T01:20:17;57.22;;;28.48;;
41426;SDS011;27171;51.812;19.514;2023-12-07T01:23:18;56.75;;;30.65;;
41426;SDS011;27171;51.812;19.514;2023-12-07T01:26:19;60.13;;;32.60;;
41426;SDS011;27171;51.812;19.514;2023-12-07T01:29:20;64.45;;;31.95;;
41426;SDS011;27171;51.812;19.514;2023-12-07T01:32:22;64.15;;;33.28;;
41426;SDS011;27171;51.812;19.514;2023-12-07T01:35:23;60.35;;;32.17;;
41426;SDS011;27171;51.812;19.514;2023-12-07T01:38:24;59.60;;;31.35;;
41426;SDS011;27171;51.812;19.514;2023-12-07T01:41:25;66.00;;;33.20;;
41426;SDS011;27171;51.812;19.514;2023-12-07T01:44:27;60.25;;;30.95;;
41426;SDS011;27171;51.812;19.514;2023-12-07T01:47:28;63.63;;;33.72;;
41426;SDS011;27171;51.812;19.514;2023-12-07T01:50:29;71.00;;;36.00;;
41426;SDS011;27171;51.812;19.514;2023-12-07T01:53:31;63.65;;;33.90;;
41426;SDS011;27171;51.812;19.514;2023-12-07T01:56:33;66.88;;;33.95;;
41426;SDS011;27171;51.812;19.514;2023-12-07T01:59:34;59.45;;;31.92;;
41426;SDS011;27171;51.812;19.514;2023-12-07T02:02:35;59.03;;;31.38;;
41426;SDS011;27171;51.812;19.514;2023-12-07T02:05:37;66.35;;;32.47;;
41426;SDS011;27171;51.812;19.514;2023-12-07T02:08:43;59.42;;;30.50;;
41426;SDS011;27171;51.812;19.514;2023-12-07T02:11:44;62.30;;;33.40;;
41426;SDS011;27171;51.812;19.514;2023-12-07T02:14:45;65.35;;;33.10;;
41426;SDS011;27171;51.812;19.514;2023-12-07T02:24:22;62.20;;;32.45;;
41426;SDS011;27171;51.812;19.514;2023-12-07T02:30:43;62.60;;;32.53;;
41426;SDS011;27171;51.812;19.514;2023-12-07T02:33:45;64.90;;;32.78;;
41426;SDS011;27171;51.812;19.514;2023-12-07T02:36:46;58.95;;;32.42;;
41426;SDS011;27171;51.812;19.514;2023-12-07T02:39:55;66.85;;;34.55;;
41426;SDS011;27171;51.812;19.514;2023-12-07T02:42:57;64.40;;;33.17;;
41426;SDS011;27171;51.812;19.514;2023-12-07T02:45:59;57.28;;;30.98;;
41426;SDS011;27171;51.812;19.514;2023-12-07T02:49:01;64.57;;;32.85;;
41426;SDS011;27171;51.812;19.514;2023-12-07T02:52:02;63.38;;;30.50;;
41426;SDS011;27171;51.812;19.514;2023-12-07T02:55:04;62.67;;;30.67;;
41426;SDS011;27171;51.812;19.514;2023-12-07T02:58:06;65.90;;;33.50;;
41426;SDS011;27171;51.812;19.514;2023-12-07T03:01:07;61.53;;;30.73;;
41426;SDS011;27171;51.812;19.514;2023-12-07T03:04:08;56.83;;;29.27;;
41426;SDS011;27171;51.812;19.514;2023-12-07T03:07:09;60.55;;;31.38;;
41426;SDS011;27171;51.812;19.514;2023-12-07T03:10:11;59.60;;;30.40;;
41426;SDS011;27171;51.812;19.514;2023-12-07T03:13:12;60.35;;;33.08;;
41426;SDS011;27171;51.812;19.514;2023-12-07T03:16:13;68.40;;;33.58;;
41426;SDS011;27171;51.812;19.514;2023-12-07T03:19:14;60.92;;;30.98;;
41426;SDS011;27171;51.812;19.514;2023-12-07T03:22:15;57.78;;;29.30;;
41426;SDS011;27171;51.812;19.514;2023-12-07T03:25:17;65.03;;;33.40;;
41426;SDS011;27171;51.812;19.514;2023-12-07T03:28:18;64.40;;;32.10;;
41426;SDS011;27171;51.812;19.514;2023-12-07T03:31:19;65.68;;;32.72;;
41426;SDS011;27171;51.812;19.514;2023-12-07T03:34:20;66.22;;;34.63;;
41426;SDS011;27171;51.812;19.514;2023-12-07T03:37:21;69.00;;;35.28;;
41426;SDS011;27171;51.812;19.514;2023-12-07T03:40:22;66.22;;;34.47;;
41426;SDS011;27171;51.812;19.514;2023-12-07T03:43:24;67.90;;;34.53;;
41426;SDS011;27171;51.812;19.514;2023-12-07T03:46:25;69.22;;;34.05;;
41426;SDS011;27171;51.812;19.514;2023-12-07T03:49:26;60.92;;;32.58;;
41426;SDS011;27171;51.812;19.514;2023-12-07T03:52:27;61.30;;;32.05;;
41426;SDS011;27171;51.812;19.514;2023-12-07T03:55:28;59.30;;;29.95;;
41426;SDS011;27171;51.812;19.514;2023-12-07T03:58:30;58.47;;;31.00;;
41426;SDS011;27171;51.812;19.514;2023-12-07T04:01:31;63.03;;;31.98;;
41426;SDS011;27171;51.812;19.514;2023-12-07T04:04:32;64.50;;;32.78;;
41426;SDS011;27171;51.812;19.514;2023-12-07T04:07:34;67.68;;;34.10;;
41426;SDS011;27171;51.812;19.514;2023-12-07T04:10:35;64.72;;;31.77;;
41426;SDS011;27171;51.812;19.514;2023-12-07T04:13:36;62.40;;;33.13;;
41426;SDS011;27171;51.812;19.514;2023-12-07T04:16:37;63.80;;;32.38;;
41426;SDS011;27171;51.812;19.514;2023-12-07T04:19:39;67.15;;;31.85;;
41426;SDS011;27171;51.812;19.514;2023-12-07T04:22:40;67.15;;;32.95;;
41426;SDS011;27171;51.812;19.514;2023-12-07T04:25:41;62.67;;;30.95;;
41426;SDS011;27171;51.812;19.514;2023-12-07T04:28:42;62.25;;;30.38;;
41426;SDS011;27171;51.812;19.514;2023-12-07T04:31:44;62.25;;;31.50;;
41426;SDS011;27171;51.812;19.514;2023-12-07T04:34:45;60.33;;;29.58;;
41426;SDS011;27171;51.812;19.514;2023-12-07T04:37:46;63.47;;;31.20;;
41426;SDS011;27171;51.812;19.514;2023-12-07T04:40:47;57.90;;;29.38;;
41426;SDS011;27171;51.812;19.514;2023-12-07T04:43:48;60.00;;;28.25;;
41426;SDS011;27171;51.812;19.514;2023-12-07T04:46:49;60.00;;;30.38;;
41426;SDS011;27171;51.812;19.514;2023-12-07T04:49:50;64.88;;;31.33;;
41426;SDS011;27171;51.812;19.514;2023-12-07T04:52:52;63.03;;;31.10;;
41426;SDS011;27171;51.812;19.514;2023-12-07T04:55:53;62.05;;;32.00;;
41426;SDS011;27171;51.812;19.514;2023-12-07T04:58:54;65.13;;;30.50;;
41426;SDS011;27171;51.812;19.514;2023-12-07T05:01:55;66.75;;;31.35;;
41426;SDS011;27171;51.812;19.514;2023-12-07T05:04:56;61.10;;;30.63;;
41426;SDS011;27171;51.812;19.514;2023-12-07T05:07:58;64.35;;;31.15;;
41426;SDS011;27171;51.812;19.514;2023-12-07T05:10:59;63.30;;;30.95;;
41426;SDS011;27171;51.812;19.514;2023-12-07T05:14:00;62.88;;;31.27;;
41426;SDS011;27171;51.812;19.514;2023-12-07T05:17:01;68.38;;;33.28;;
41426;SDS011;27171;51.812;19.514;2023-12-07T05:20:02;64.82;;;31.58;;
41426;SDS011;27171;51.812;19.514;2023-12-07T05:23:04;63.90;;;31.05;;
41426;SDS011;27171;51.812;19.514;2023-12-07T05:26:05;62.72;;;31.70;;
41426;SDS011;27171;51.812;19.514;2023-12-07T05:29:07;61.88;;;28.80;;
41426;SDS011;27171;51.812;19.514;2023-12-07T05:32:08;64.60;;;31.55;;
41426;SDS011;27171;51.812;19.514;2023-12-07T05:35:09;65.95;;;32.13;;
41426;SDS011;27171;51.812;19.514;2023-12-07T05:38:11;69.40;;;31.27;;
41426;SDS011;27171;51.812;19.514;2023-12-07T05:41:12;69.70;;;32.38;;
41426;SDS011;27171;51.812;19.514;2023-12-07T05:44:13;67.68;;;31.30;;
41426;SDS011;27171;51.812;19.514;2023-12-07T05:47:14;73.93;;;33.53;;
41426;SDS011;27171;51.812;19.514;2023-12-07T05:50:15;78.30;;;35.28;;
41426;SDS011;27171;51.812;19.514;2023-12-07T05:53:16;70.90;;;34.92;;
41426;SDS011;27171;51.812;19.514;2023-12-07T05:56:18;79.45;;;35.42;;
41426;SDS011;27171;51.812;19.514;2023-12-07T05:59:20;74.30;;;34.28;;
41426;SDS011;27171;51.812;19.514;2023-12-07T06:02:21;70.38;;;33.40;;
41426;SDS011;27171;51.812;19.514;2023-12-07T06:05:23;72.53;;;35.05;;
41426;SDS011;27171;51.812;19.514;2023-12-07T06:08:24;79.38;;;35.08;;
41426;SDS011;27171;51.812;19.514;2023-12-07T06:11:25;83.15;;;34.92;;
41426;SDS011;27171;51.812;19.514;2023-12-07T06:14:26;79.43;;;35.75;;
41426;SDS011;27171;51.812;19.514;2023-12-07T06:17:27;88.90;;;37.67;;
41426;SDS011;27171;51.812;19.514;2023-12-07T06:20:29;81.90;;;39.00;;
41426;SDS011;27171;51.812;19.514;2023-12-07T06:23:30;91.97;;;41.63;;
41426;SDS011;27171;51.812;19.514;2023-12-07T06:26:31;77.00;;;36.40;;
41426;SDS011;27171;51.812;19.514;2023-12-07T06:29:32;89.85;;;39.33;;
41426;SDS011;27171;51.812;19.514;2023-12-07T06:32:33;88.78;;;39.13;;
41426;SDS011;27171;51.812;19.514;2023-12-07T06:35:34;77.80;;;33.58;;
41426;SDS011;27171;51.812;19.514;2023-12-07T06:38:36;83.30;;;35.33;;
41426;SDS011;27171;51.812;19.514;2023-12-07T06:41:37;88.22;;;37.08;;
41426;SDS011;27171;51.812;19.514;2023-12-07T06:44:38;76.38;;;32.47;;
41426;SDS011;27171;51.812;19.514;2023-12-07T06:47:40;70.53;;;33.00;;
41426;SDS011;27171;51.812;19.514;2023-12-07T06:50:41;83.85;;;34.50;;
41426;SDS011;27171;51.812;19.514;2023-12-07T06:53:42;97.88;;;37.45;;
41426;SDS011;27171;51.812;19.514;2023-12-07T06:56:43;85.07;;;36.45;;
41426;SDS011;27171;51.812;19.514;2023-12-07T06:59:45;81.78;;;34.97;;
41426;SDS011;27171;51.812;19.514;2023-12-07T07:02:46;93.05;;;36.58;;
41426;SDS011;27171;51.812;19.514;2023-12-07T07:05:47;83.38;;;35.92;;
41426;SDS011;27171;51.812;19.514;2023-12-07T17:35:34;147.00;;;59.13;;
41426;SDS011;27171;51.812;19.514;2023-12-07T17:38:36;123.78;;;45.92;;
41426;SDS011;27171;51.812;19.514;2023-12-07T17:44:37;135.23;;;43.90;;
41426;SDS011;27171;51.812;19.514;2023-12-07T17:50:39;112.60;;;40.03;;
41426;SDS011;27171;51.812;19.514;2023-12-07T17:53:41;136.13;;;47.38;;
41426;SDS011;27171;51.812;19.514;2023-12-07T17:59:43;114.90;;;39.58;;
41426;SDS011;27171;51.812;19.514;2023-12-07T18:05:44;115.35;;;42.25;;
41426;SDS011;27171;51.812;19.514;2023-12-07T18:11:46;109.03;;;37.67;;
41426;SDS011;27171;51.812;19.514;2023-12-07T18:17:48;119.38;;;45.53;;
41426;SDS011;27171;51.812;19.514;2023-12-07T18:23:50;96.40;;;35.25;;
41426;SDS011;27171;51.812;19.514;2023-12-07T18:29:52;117.22;;;40.85;;
41426;SDS011;27171;51.812;19.514;2023-12-07T18:35:53;106.07;;;40.10;;
41426;SDS011;27171;51.812;19.514;2023-12-07T18:38:55;114.38;;;43.55;;
41426;SDS011;27171;51.812;19.514;2023-12-07T18:44:57;122.05;;;45.03;;
41426;SDS011;27171;51.812;19.514;2023-12-07T18:47:58;151.57;;;53.25;;
41426;SDS011;27171;51.812;19.514;2023-12-07T18:54:00;124.75;;;46.60;;
41426;SDS011;27171;51.812;19.514;2023-12-07T19:00:02;122.05;;;45.03;;
41426;SDS011;27171;51.812;19.514;2023-12-07T19:03:03;128.57;;;51.75;;
41426;SDS011;27171;51.812;19.514;2023-12-07T19:09:05;118.18;;;45.42;;
41426;SDS011;27171;51.812;19.514;2023-12-07T19:12:06;110.50;;;45.92;;
41426;SDS011;27171;51.812;19.514;2023-12-07T19:18:08;97.30;;;42.40;;
41426;SDS011;27171;51.812;19.514;2023-12-07T19:24:10;121.30;;;48.65;;
41426;SDS011;27171;51.812;19.514;2023-12-07T19:30:12;103.05;;;40.72;;
41426;SDS011;27171;51.812;19.514;2023-12-07T19:33:13;101.40;;;38.38;;
41426;SDS011;27171;51.812;19.514;2023-12-07T19:39:15;83.07;;;33.90;;
41426;SDS011;27171;51.812;19.514;2023-12-07T19:45:17;94.60;;;38.13;;
41426;SDS011;27171;51.812;19.514;2023-12-07T19:48:18;106.45;;;43.08;;
41426;SDS011;27171;51.812;19.514;2023-12-07T19:54:20;113.47;;;43.00;;
41426;SDS011;27171;51.812;19.514;2023-12-07T20:00:21;94.13;;;37.60;;
41426;SDS011;27171;51.812;19.514;2023-12-07T20:03:23;96.97;;;39.25;;
41426;SDS011;27171;51.812;19.514;2023-12-07T20:09:25;98.45;;;38.83;;
41426;SDS011;27171;51.812;19.514;2023-12-07T20:15:26;112.25;;;40.13;;
41426;SDS011;27171;51.812;19.514;2023-12-07T20:21:28;134.75;;;48.58;;
41426;SDS011;27171;51.812;19.514;2023-12-07T20:24:29;137.75;;;50.58;;
41426;SDS011;27171;51.812;19.514;2023-12-07T20:30:31;111.13;;;40.60;;
41426;SDS011;27171;51.812;19.514;2023-12-07T20:33:32;109.53;;;42.20;;
41426;SDS011;27171;51.812;19.514;2023-12-07T20:42:35;100.93;;;34.15;;
41426;SDS011;27171;51.812;19.514;2023-12-07T20:48:37;125.63;;;39.78;;
41426;SDS011;27171;51.812;19.514;2023-12-07T20:54:39;96.68;;;37.83;;
41426;SDS011;27171;51.812;19.514;2023-12-07T21:00:41;124.22;;;40.05;;
41426;SDS011;27171;51.812;19.514;2023-12-07T21:06:42;124.68;;;42.70;;
41426;SDS011;27171;51.812;19.514;2023-12-07T21:09:44;159.52;;;58.78;;
41426;SDS011;27171;51.812;19.514;2023-12-07T21:15:45;129.20;;;42.40;;
41426;SDS011;27171;51.812;19.514;2023-12-07T21:21:47;113.32;;;36.25;;
41426;SDS011;27171;51.812;19.514;2023-12-07T21:27:49;90.38;;;31.17;;
41426;SDS011;27171;51.812;19.514;2023-12-07T21:33:51;111.05;;;34.95;;
41426;SDS011;27171;51.812;19.514;2023-12-07T21:39:53;112.97;;;37.45;;
41426;SDS011;27171;51.812;19.514;2023-12-07T21:45:55;90.28;;;32.90;;
41426;SDS011;27171;51.812;19.514;2023-12-07T21:51:57;104.78;;;36.05;;
41426;SDS011;27171;51.812;19.514;2023-12-07T21:57:58;109.80;;;38.40;;
41426;SDS011;27171;51.812;19.514;2023-12-07T22:04:00;93.63;;;32.10;;
41426;SDS011;27171;51.812;19.514;2023-12-07T22:10:02;122.60;;;39.40;;
41426;SDS011;27171;51.812;19.514;2023-12-07T22:13:03;125.50;;;43.08;;
41426;SDS011;27171;51.812;19.514;2023-12-07T22:16:05;145.82;;;44.75;;
41426;SDS011;27171;51.812;19.514;2023-12-07T22:19:06;121.93;;;41.20;;
41426;SDS011;27171;51.812;19.514;2023-12-07T22:25:07;133.15;;;41.25;;
41426;SDS011;27171;51.812;19.514;2023-12-07T22:28:09;154.93;;;43.78;;
41426;SDS011;27171;51.812;19.514;2023-12-07T22:34:11;134.38;;;43.45;;
41426;SDS011;27171;51.812;19.514;2023-12-07T22:37:11;146.18;;;43.03;;
41426;SDS011;27171;51.812;19.514;2023-12-07T22:40:13;142.80;;;49.65;;
41426;SDS011;27171;51.812;19.514;2023-12-07T22:43:14;133.80;;;44.47;;
41426;SDS011;27171;51.812;19.514;2023-12-07T22:46:15;143.45;;;48.97;;
41426;SDS011;27171;51.812;19.514;2023-12-07T22:52:17;131.45;;;43.25;;
41426;SDS011;27171;51.812;19.514;2023-12-07T22:58:19;125.55;;;41.88;;
41426;SDS011;27171;51.812;19.514;2023-12-07T23:04:20;118.93;;;39.72;;
41426;SDS011;27171;51.812;19.514;2023-12-07T23:10:22;109.82;;;39.67;;
41426;SDS011;27171;51.812;19.514;2023-12-07T23:16:24;109.57;;;40.42;;
41426;SDS011;27171;51.812;19.514;2023-12-07T23:22:26;105.97;;;38.75;;
41426;SDS011;27171;51.812;19.514;2023-12-07T23:28:28;114.68;;;40.72;;
41426;SDS011;27171;51.812;19.514;2023-12-07T23:34:29;96.07;;;38.20;;
41426;SDS011;27171;51.812;19.514;2023-12-07T23:40:31;97.10;;;36.22;;
41426;SDS011;27171;51.812;19.514;2023-12-07T23:46:33;87.90;;;34.78;;
41426;SDS011;27171;51.812;19.514;2023-12-07T23:52:35;105.57;;;40.88;;
41426;SDS011;27171;51.812;19.514;2023-12-07T23:58:37;98.68;;;38.08;;
